Terminal Aerodrome Forecast
Issued by NWS

Home | Current Version | Previous Version | Text Only | Print | Product List | Glossary On
Versions: 1 2 3 4 5 6 7 8 9 10 11 12
000
FTUS42 KMLB 270539
TAFISM
TAF
KISM 270539Z 2706/2806 VRB03KT P6SM FEW090
     FM271500 08008KT P6SM SCT045 SCT250
     FM280000 10005KT P6SM FEW050=

USA.gov is the U.S. government's official web portal to all federal, state and local government web resources and services.